createdAt,value
2022-09-19T00:02:27.073Z,2.60
2022-09-19T00:05:32.367Z,4.25
2022-09-19T00:08:35.289Z,3.22
2022-09-19T00:11:41.873Z,4.47
2022-09-19T00:14:45.810Z,3.67
2022-09-19T00:17:50.920Z,3.37
2022-09-19T00:20:53.485Z,3.03
2022-09-19T00:24:13.883Z,4.28
2022-09-19T00:27:19.500Z,3.40
2022-09-19T00:30:23.424Z,4.70
2022-09-19T00:33:29.800Z,2.83
2022-09-19T00:36:33.489Z,3.22
2022-09-19T00:39:36.345Z,3.15
2022-09-19T00:42:39.435Z,3.78
2022-09-19T00:45:46.279Z,3.97
2022-09-19T00:48:53.383Z,3.27
2022-09-19T00:52:00.728Z,3.45
2022-09-19T00:55:04.257Z,3.10
2022-09-19T00:58:12.847Z,3.60
2022-09-19T01:01:17.983Z,3.30
2022-09-19T01:04:22.946Z,5.10
2022-09-19T01:07:38.666Z,3.20
2022-09-19T01:10:53.368Z,4.90
2022-09-19T01:14:03.209Z,2.78
2022-09-19T01:17:13.921Z,2.87
2022-09-19T01:20:49.943Z,3.13
2022-09-19T01:24:10.124Z,4.18
2022-09-19T01:27:29.275Z,4.72
2022-09-19T01:30:35.004Z,3.97
2022-09-19T01:33:42.022Z,3.30
2022-09-19T01:36:48.545Z,3.93
2022-09-19T01:39:53.088Z,3.28
2022-09-19T01:42:58.828Z,3.10
2022-09-19T01:46:11.221Z,2.95
2022-09-19T01:49:27.044Z,4.07
2022-09-19T01:52:51.106Z,4.93
2022-09-19T01:55:59.962Z,3.67
2022-09-19T01:59:13.177Z,3.47
2022-09-19T02:02:30.173Z,2.97
2022-09-19T02:05:39.478Z,4.83
2022-09-19T02:08:47.947Z,5.13
2022-09-19T02:11:53.341Z,4.97
2022-09-19T02:14:58.365Z,4.55
2022-09-19T02:18:08.119Z,4.28
2022-09-19T02:21:15.284Z,5.50
2022-09-19T02:24:24.945Z,4.73
2022-09-19T02:27:33.864Z,3.67
2022-09-19T02:30:37.466Z,4.53
2022-09-19T02:33:45.156Z,5.00
2022-09-19T02:36:56.014Z,5.53
2022-09-19T02:40:02.966Z,5.53
2022-09-19T02:43:16.104Z,5.15
2022-09-19T02:46:27.416Z,4.40
2022-09-19T02:49:40.286Z,4.78
2022-09-19T02:52:45.418Z,4.57
2022-09-19T02:55:52.228Z,5.90
2022-09-19T02:59:00.185Z,6.93
2022-09-19T03:02:06.435Z,6.72
2022-09-19T03:05:15.628Z,6.78
2022-09-19T03:08:19.240Z,5.57
2022-09-19T03:11:23.405Z,5.43
2022-09-19T03:14:27.028Z,5.20
2022-09-19T03:17:33.651Z,6.35
2022-09-19T03:20:40.994Z,5.03
2022-09-19T03:23:46.084Z,5.50
2022-09-19T03:26:50.896Z,5.50
2022-09-19T03:29:53.478Z,6.22
2022-09-19T03:32:56.244Z,6.47
2022-09-19T03:36:07.226Z,6.00
2022-09-19T03:39:10.925Z,6.30
2022-09-19T03:42:13.513Z,7.50
2022-09-19T03:45:16.386Z,6.63
2022-09-19T03:48:20.170Z,6.35
2022-09-19T03:51:25.777Z,5.97
2022-09-19T03:54:29.035Z,6.30
2022-09-19T03:57:31.959Z,6.43
2022-09-19T04:00:34.562Z,5.50
2022-09-19T04:03:38.907Z,6.88
2022-09-19T04:06:43.001Z,5.68
2022-09-19T04:09:48.399Z,6.20
2022-09-19T04:12:51.489Z,7.93
2022-09-19T04:15:55.648Z,6.43
2022-09-19T04:18:58.387Z,5.70
2022-09-19T04:22:02.624Z,7.50
2022-09-19T04:25:06.118Z,5.83
2022-09-19T04:28:12.761Z,6.37
2022-09-19T04:31:15.865Z,6.68
2022-09-19T04:34:18.606Z,6.30
2022-09-19T04:37:23.627Z,7.82
2022-09-19T04:40:26.338Z,7.67
2022-09-19T04:43:29.596Z,6.10
2022-09-19T04:46:33.487Z,7.45
2022-09-19T04:49:43.450Z,8.13
2022-09-19T04:52:47.406Z,7.15
2022-09-19T04:55:50.956Z,6.63
2022-09-19T04:58:53.521Z,5.73
2022-09-19T05:01:56.272Z,7.63
2022-09-19T05:05:00.188Z,10.35
2022-09-19T05:08:06.302Z,10.15
2022-09-19T05:11:09.868Z,9.53
2022-09-19T05:14:15.740Z,9.43
2022-09-19T05:17:18.311Z,10.63
2022-09-19T05:20:21.617Z,9.25
2022-09-19T05:23:26.894Z,7.10
2022-09-19T05:26:30.061Z,9.83
2022-09-19T05:29:42.761Z,12.00
2022-09-19T05:32:46.046Z,9.60
2022-09-19T05:35:49.324Z,5.65
2022-09-19T05:38:53.768Z,9.75
2022-09-19T05:42:00.003Z,8.17
2022-09-19T05:45:03.624Z,11.73
2022-09-19T05:48:08.704Z,8.93
2022-09-19T05:51:11.289Z,6.95
2022-09-19T05:54:14.417Z,5.70
2022-09-19T05:57:19.004Z,5.73
2022-09-19T06:00:22.546Z,6.73
2022-09-19T06:03:25.257Z,5.75
2022-09-19T06:06:28.491Z,5.88
2022-09-19T06:09:32.539Z,4.45
2022-09-19T06:12:35.251Z,6.13
2022-09-19T06:15:37.913Z,7.20
2022-09-19T06:18:43.105Z,5.63
2022-09-19T06:21:50.327Z,6.20
2022-09-19T06:24:54.462Z,5.38
2022-09-19T06:27:57.434Z,4.90
2022-09-19T06:31:06.679Z,5.60
2022-09-19T06:34:09.314Z,5.28
2022-09-19T06:37:12.586Z,7.05
2022-09-19T06:40:19.270Z,6.10
2022-09-19T06:43:22.919Z,5.93
2022-09-19T06:46:25.622Z,5.37
2022-09-19T06:49:28.710Z,5.47
2022-09-19T06:52:31.321Z,4.97
2022-09-19T06:55:35.770Z,5.40
2022-09-19T06:58:38.597Z,7.70
2022-09-19T07:01:41.360Z,6.13
2022-09-19T07:04:43.979Z,7.15
2022-09-19T07:07:46.996Z,5.60
2022-09-19T07:10:51.305Z,4.88
2022-09-19T07:13:54.192Z,3.70
2022-09-19T07:16:58.823Z,4.63
2022-09-19T07:20:02.196Z,4.90
2022-09-19T07:23:10.688Z,14.75
2022-09-19T07:26:16.271Z,9.70
2022-09-19T07:29:18.875Z,5.63
2022-09-19T07:32:21.675Z,12.03
2022-09-19T07:35:24.345Z,10.63
2022-09-19T07:38:29.751Z,24.50
2022-09-19T07:41:33.678Z,59.83
2022-09-19T07:44:36.254Z,13.33
2022-09-19T07:47:44.023Z,8.77
2022-09-19T07:50:53.496Z,6.22
2022-09-19T07:53:58.860Z,4.75
2022-09-19T07:57:03.269Z,11.65
2022-09-19T08:00:08.623Z,9.47
2022-09-19T08:03:12.764Z,6.40
2022-09-19T08:06:15.389Z,5.05
2022-09-19T08:09:18.117Z,3.88
2022-09-19T08:12:23.258Z,4.05
2022-09-19T08:15:26.093Z,3.03
2022-09-19T08:18:28.900Z,4.93
2022-09-19T08:21:33.261Z,2.80
2022-09-19T08:24:36.310Z,3.28
2022-09-19T08:27:40.363Z,2.97
2022-09-19T08:30:44.496Z,2.80
2022-09-19T08:33:49.723Z,2.67
2022-09-19T08:36:52.298Z,4.43
2022-09-19T08:40:12.687Z,5.60
2022-09-19T08:43:23.377Z,2.58
2022-09-19T08:46:38.084Z,3.37
2022-09-19T08:49:46.172Z,4.37
2022-09-19T08:52:50.945Z,3.67
2022-09-19T08:55:58.003Z,2.97
2022-09-19T08:59:06.580Z,2.33
2022-09-19T09:02:42.467Z,2.97
2022-09-19T09:05:57.327Z,2.77
2022-09-19T09:09:12.233Z,3.00
2022-09-19T09:12:27.877Z,2.50
2022-09-19T09:15:50.319Z,1.98
2022-09-19T09:19:08.462Z,2.90
2022-09-19T09:22:22.179Z,2.27
2022-09-19T09:25:31.670Z,3.17
2022-09-19T09:28:43.731Z,2.65
2022-09-19T09:31:53.249Z,2.53
2022-09-19T09:35:01.110Z,3.47
2022-09-19T09:38:17.258Z,2.63
2022-09-19T09:41:41.429Z,2.10
2022-09-19T09:44:56.367Z,3.53
2022-09-19T09:48:10.294Z,2.03
2022-09-19T09:51:24.615Z,2.60
2022-09-19T09:55:04.059Z,2.07
2022-09-19T09:58:15.188Z,1.92
2022-09-19T10:02:00.659Z,0.80
2022-09-19T10:05:12.770Z,1.85
2022-09-19T10:08:21.242Z,1.17
2022-09-19T10:15:07.514Z,4.38
2022-09-19T10:18:15.075Z,2.90
2022-09-19T10:21:19.439Z,2.78
2022-09-19T10:24:43.821Z,1.47
2022-09-19T10:27:50.675Z,1.57
2022-09-19T10:30:58.314Z,1.30
2022-09-19T10:34:05.642Z,0.90
2022-09-19T10:37:14.016Z,2.50
2022-09-19T10:40:18.275Z,0.90
2022-09-19T10:43:24.140Z,2.25
2022-09-19T10:46:32.635Z,1.25
2022-09-19T10:49:46.374Z,1.20
2022-09-19T10:52:53.407Z,1.60
2022-09-19T10:55:57.062Z,0.77
2022-09-19T10:59:04.489Z,1.90
2022-09-19T11:02:28.554Z,1.83
2022-09-19T11:05:33.324Z,1.50
2022-09-19T11:08:47.026Z,1.00
2022-09-19T11:11:51.129Z,1.10
2022-09-19T11:14:56.294Z,4.63
2022-09-19T11:18:07.080Z,2.28
2022-09-19T11:21:18.073Z,2.05
2022-09-19T11:24:42.490Z,2.87
2022-09-19T11:28:07.096Z,2.70
2022-09-19T11:34:56.859Z,2.97
2022-09-19T11:42:03.838Z,2.87
2022-09-19T11:45:13.839Z,2.17
2022-09-19T11:48:33.584Z,2.33
2022-09-19T11:51:51.374Z,3.47
2022-09-19T11:55:10.964Z,1.63
2022-09-19T11:58:26.024Z,5.60
2022-09-19T12:01:38.732Z,5.13
2022-09-19T12:04:46.384Z,8.10
2022-09-19T12:08:01.671Z,5.75
2022-09-19T12:11:11.249Z,4.03
2022-09-19T12:14:23.943Z,6.10
2022-09-19T12:17:30.696Z,7.50
2022-09-19T12:20:39.014Z,6.03
2022-09-19T12:24:03.748Z,2.28
2022-09-19T12:27:13.434Z,1.08
2022-09-19T12:30:20.076Z,2.67
2022-09-19T12:33:33.104Z,3.27
2022-09-19T12:36:44.159Z,2.30
2022-09-19T12:39:54.873Z,2.13
2022-09-19T12:43:08.949Z,0.90
2022-09-19T12:46:35.000Z,1.70
2022-09-19T12:49:45.828Z,1.50
2022-09-19T12:52:59.658Z,1.33
2022-09-19T12:56:06.626Z,2.58
2022-09-19T12:59:21.023Z,2.00
2022-09-19T13:02:30.219Z,3.37
2022-09-19T13:05:38.384Z,2.37
2022-09-19T13:08:48.474Z,3.20
2022-09-19T13:11:59.828Z,4.55
2022-09-19T13:15:11.919Z,10.50
2022-09-19T13:18:35.008Z,8.00
2022-09-19T13:22:09.659Z,5.47
2022-09-19T13:25:15.852Z,7.10
2022-09-19T13:28:29.578Z,15.88
2022-09-19T13:31:57.959Z,15.27
2022-09-19T13:35:19.534Z,45.20
2022-09-19T13:38:27.928Z,50.27
2022-09-19T13:41:35.913Z,24.73
2022-09-19T13:44:47.085Z,8.35
2022-09-19T13:47:55.893Z,7.28
2022-09-19T13:51:07.006Z,3.47
2022-09-19T13:54:33.618Z,5.10
2022-09-19T13:57:40.277Z,4.22
2022-09-19T14:00:48.150Z,4.03
2022-09-19T14:03:57.240Z,2.92
2022-09-19T14:10:30.017Z,2.43
2022-09-19T14:13:45.687Z,3.92
2022-09-19T14:17:30.055Z,2.67
2022-09-19T14:20:51.889Z,5.30
2022-09-19T14:24:04.209Z,3.27
2022-09-19T14:27:18.803Z,6.83
2022-09-19T14:30:48.260Z,6.57
2022-09-19T14:34:27.593Z,3.53
2022-09-19T14:37:58.541Z,1.48
2022-09-19T14:41:07.250Z,2.47
2022-09-19T14:44:37.227Z,3.07
2022-09-19T14:47:44.340Z,3.42
2022-09-19T14:50:51.952Z,3.70
2022-09-19T14:54:04.002Z,3.50
2022-09-19T14:57:16.638Z,3.50
2022-09-19T15:00:24.459Z,3.27
2022-09-19T15:03:27.457Z,2.05
2022-09-19T15:06:33.719Z,3.85
2022-09-19T15:09:38.181Z,2.72
2022-09-19T15:12:43.249Z,4.40
2022-09-19T15:15:49.792Z,45.53
2022-09-19T15:18:54.421Z,27.75
2022-09-19T15:21:59.125Z,13.40
2022-09-19T15:25:08.231Z,18.83
2022-09-19T15:28:27.961Z,33.70
2022-09-19T15:31:33.607Z,27.60
2022-09-19T15:34:37.379Z,43.88
2022-09-19T15:37:44.854Z,45.30
2022-09-19T15:40:48.042Z,41.88
2022-09-19T15:43:53.326Z,20.67
2022-09-19T15:47:03.993Z,33.53
2022-09-19T15:50:23.674Z,67.10
2022-09-19T15:53:34.389Z,27.00
2022-09-19T15:56:45.787Z,12.00
2022-09-19T15:59:51.711Z,15.00
2022-09-19T16:02:57.091Z,44.30
2022-09-19T16:06:29.729Z,37.28
2022-09-19T16:09:34.526Z,19.85
2022-09-19T16:12:44.107Z,13.63
2022-09-19T16:15:48.195Z,11.00
2022-09-19T16:18:51.526Z,18.60
2022-09-19T16:21:56.128Z,40.50
2022-09-19T16:25:03.976Z,32.50
2022-09-19T16:28:12.946Z,18.27
2022-09-19T16:31:28.221Z,23.83
2022-09-19T16:34:35.993Z,22.25
2022-09-19T16:37:41.230Z,14.60
2022-09-19T16:40:56.663Z,15.23
2022-09-19T16:44:01.349Z,12.87
2022-09-19T16:47:16.810Z,8.55
2022-09-19T16:50:25.154Z,7.18
2022-09-19T16:53:29.926Z,6.25
2022-09-19T16:56:32.640Z,8.00
2022-09-19T16:59:36.615Z,6.47
2022-09-19T17:02:40.587Z,6.28
2022-09-19T17:05:43.865Z,6.72
2022-09-19T17:08:46.863Z,7.13
2022-09-19T17:11:49.507Z,8.35
2022-09-19T17:14:52.317Z,6.27
2022-09-19T17:17:56.307Z,9.60
2022-09-19T17:21:00.603Z,12.15
2022-09-19T17:24:03.716Z,27.15
2022-09-19T17:27:07.211Z,18.98
2022-09-19T17:30:11.291Z,11.77
2022-09-19T17:33:16.658Z,12.23
2022-09-19T17:36:19.603Z,12.35
2022-09-19T17:39:22.367Z,9.98
2022-09-19T17:42:25.172Z,7.70
2022-09-19T17:45:27.961Z,8.80
2022-09-19T17:48:36.687Z,7.55
2022-09-19T17:51:39.872Z,6.10
2022-09-19T17:54:42.651Z,8.70
2022-09-19T17:57:45.333Z,8.10
2022-09-19T18:00:48.547Z,5.40
2022-09-19T18:03:51.697Z,6.53
2022-09-19T18:06:54.347Z,8.52
2022-09-19T18:09:56.910Z,8.55
2022-09-19T18:13:04.411Z,8.35
2022-09-19T18:16:07.680Z,8.37
2022-09-19T18:19:11.719Z,6.38
2022-09-19T18:22:14.301Z,4.85
2022-09-19T18:25:18.311Z,5.70
2022-09-19T18:28:22.866Z,7.28
2022-09-19T18:31:26.069Z,3.77
2022-09-19T18:34:30.217Z,5.18
2022-09-19T18:37:32.844Z,4.90
2022-09-19T18:40:35.487Z,7.57
2022-09-19T18:43:38.964Z,7.10
2022-09-19T18:46:41.582Z,4.87
2022-09-19T18:49:45.532Z,4.43
2022-09-19T18:52:48.538Z,4.85
2022-09-19T18:55:53.735Z,5.07
2022-09-19T18:58:58.297Z,3.92
2022-09-19T19:02:01.548Z,4.53
2022-09-19T19:05:06.894Z,4.07
2022-09-19T19:08:10.845Z,7.45
2022-09-19T19:11:17.130Z,5.28
2022-09-19T19:14:19.870Z,5.70
2022-09-19T19:17:23.163Z,4.33
2022-09-19T19:20:27.112Z,3.50
2022-09-19T19:23:29.795Z,3.58
2022-09-19T19:26:35.214Z,4.22
2022-09-19T19:29:37.962Z,3.67
2022-09-19T19:32:40.566Z,4.60
2022-09-19T19:35:45.591Z,5.80
2022-09-19T19:38:50.374Z,6.43
2022-09-19T19:41:52.948Z,8.52
2022-09-19T19:44:55.513Z,12.50
2022-09-19T19:47:58.251Z,11.97
2022-09-19T19:51:04.318Z,14.80
2022-09-19T19:54:07.118Z,13.55
2022-09-19T19:57:13.645Z,13.02
2022-09-19T20:00:17.220Z,12.00
2022-09-19T20:03:20.189Z,9.03
2022-09-19T20:06:26.642Z,9.20
2022-09-19T20:09:30.652Z,8.23
2022-09-19T20:12:33.225Z,7.95
2022-09-19T20:15:36.250Z,7.57
2022-09-19T20:18:43.686Z,6.47
2022-09-19T20:21:50.747Z,5.80
2022-09-19T20:24:53.615Z,6.00
2022-09-19T20:28:00.762Z,5.30
2022-09-19T20:31:05.405Z,4.70
2022-09-19T20:34:10.285Z,5.57
2022-09-19T20:37:15.230Z,4.97
2022-09-19T20:40:18.890Z,4.32
2022-09-19T20:43:21.468Z,4.90
2022-09-19T20:46:25.371Z,3.72
2022-09-19T20:49:28.688Z,3.90
2022-09-19T20:52:32.727Z,3.45
2022-09-19T20:55:36.978Z,3.60
2022-09-19T20:58:39.638Z,3.53
2022-09-19T21:01:47.464Z,4.10
2022-09-19T21:04:52.907Z,3.57
2022-09-19T21:07:59.713Z,4.45
2022-09-19T21:11:04.475Z,3.15
2022-09-19T21:14:07.053Z,5.55
2022-09-19T21:17:09.870Z,4.20
2022-09-19T21:20:13.053Z,3.17
2022-09-19T21:23:17.138Z,3.13
2022-09-19T21:26:22.434Z,3.33
2022-09-19T21:29:25.241Z,2.55
2022-09-19T21:32:27.986Z,3.05
2022-09-19T21:35:30.746Z,4.13
2022-09-19T21:38:34.827Z,2.53
2022-09-19T21:41:38.719Z,5.25
2022-09-19T21:44:41.291Z,3.72
2022-09-19T21:47:43.970Z,4.28
2022-09-19T21:50:52.449Z,3.53
2022-09-19T21:53:58.627Z,3.30
2022-09-19T21:57:01.632Z,3.28
2022-09-19T22:00:08.285Z,3.60
2022-09-19T22:03:12.020Z,2.88
2022-09-19T22:06:15.298Z,3.88
2022-09-19T22:09:19.276Z,2.73
2022-09-19T22:12:21.976Z,4.65
2022-09-19T22:15:24.830Z,4.90
2022-09-19T22:18:28.852Z,4.25
2022-09-19T22:21:31.406Z,5.15
2022-09-19T22:24:35.439Z,4.10
2022-09-19T22:27:38.250Z,3.60
2022-09-19T22:30:41.774Z,3.80
2022-09-19T22:33:46.494Z,3.00
2022-09-19T22:36:49.182Z,5.18
2022-09-19T22:39:53.230Z,9.37
2022-09-19T22:42:56.255Z,9.82
2022-09-19T22:45:59.639Z,7.82
2022-09-19T22:49:03.673Z,9.25
2022-09-19T22:52:06.940Z,7.45
2022-09-19T22:55:11.596Z,6.63
2022-09-19T22:58:15.753Z,7.47
2022-09-19T23:01:21.189Z,10.70
2022-09-19T23:04:24.186Z,9.52
2022-09-19T23:07:26.890Z,7.43
2022-09-19T23:10:33.600Z,8.40
2022-09-19T23:13:49.703Z,5.85
2022-09-19T23:16:53.983Z,6.93
2022-09-19T23:19:57.365Z,5.93
2022-09-19T23:23:00.224Z,4.43
2022-09-19T23:26:05.358Z,5.38
2022-09-19T23:29:09.055Z,4.68
2022-09-19T23:32:11.813Z,5.07
2022-09-19T23:35:14.756Z,3.13
2022-09-19T23:38:18.115Z,3.80
2022-09-19T23:41:24.073Z,3.53
2022-09-19T23:44:26.957Z,2.83
2022-09-19T23:47:29.642Z,4.00
2022-09-19T23:50:32.524Z,3.00
2022-09-19T23:53:38.721Z,4.00
2022-09-19T23:56:42.802Z,2.75
2022-09-19T23:59:45.638Z,2.78
